createdAt,value
2023-05-13T00:03:40.591Z,100880.06
2023-05-13T00:08:44.696Z,100869.16
2023-05-13T00:13:48.486Z,100892.47
2023-05-13T00:18:52.784Z,100887.88
2023-05-13T00:23:56.710Z,100888.50
2023-05-13T00:29:01.142Z,100880.34
2023-05-13T00:34:05.088Z,100878.09
2023-05-13T00:39:09.170Z,100871.63
2023-05-13T00:44:14.638Z,100879.56
2023-05-13T00:49:18.754Z,100872.22
2023-05-13T00:54:22.932Z,100887.47
2023-05-13T00:59:31.431Z,100856.25
2023-05-13T01:05:00.875Z,100874.31
2023-05-13T01:10:16.507Z,100877.25
2023-05-13T01:15:26.241Z,100875.16
2023-05-13T01:20:32.411Z,100875.34
2023-05-13T01:25:36.376Z,100872.34
2023-05-13T01:30:40.660Z,100865.78
2023-05-13T01:35:48.636Z,100871.38
2023-05-13T01:40:55.812Z,100855.59
2023-05-13T01:46:01.485Z,100859.22
2023-05-13T01:51:05.735Z,100867.59
2023-05-13T01:56:11.631Z,100871.34
2023-05-13T02:01:15.733Z,100865.19
2023-05-13T02:06:20.260Z,100868.66
2023-05-13T02:12:01.447Z,100862.56
2023-05-13T02:17:06.219Z,100863.69
2023-05-13T02:22:10.325Z,100864.78
2023-05-13T02:27:17.236Z,100863.78
2023-05-13T02:32:21.071Z,100869.50
2023-05-13T02:37:25.533Z,100865.94
2023-05-13T02:42:36.843Z,100865.19
2023-05-13T02:47:41.430Z,100873.47
2023-05-13T02:52:45.376Z,100869.56
2023-05-13T02:57:49.866Z,100862.66
2023-05-13T03:02:54.580Z,100856.41
2023-05-13T03:07:58.897Z,100870.09
2023-05-13T03:13:02.921Z,100875.28
2023-05-13T03:18:06.911Z,100868.09
2023-05-13T03:23:13.342Z,100847.94
2023-05-13T03:28:19.025Z,100862.28
2023-05-13T03:33:23.503Z,100864.72
2023-05-13T03:38:27.423Z,100863.63
2023-05-13T03:43:31.684Z,100868.00
2023-05-13T03:48:39.091Z,100874.53
2023-05-13T03:53:43.766Z,100859.13
2023-05-13T03:58:47.845Z,100863.13
2023-05-13T04:03:51.923Z,100864.53
2023-05-13T04:08:56.039Z,100873.13
2023-05-13T04:14:00.188Z,100865.31
2023-05-13T04:19:05.133Z,100861.72
2023-05-13T04:24:09.180Z,100845.56
2023-05-13T04:29:13.337Z,100864.38
2023-05-13T04:34:17.978Z,100867.53
2023-05-13T04:39:24.099Z,100860.72
2023-05-13T04:44:27.987Z,100860.25
2023-05-13T04:49:32.130Z,100846.38
2023-05-13T04:54:39.018Z,100815.47
2023-05-13T04:59:44.127Z,100852.63
2023-05-13T05:04:49.979Z,100845.00
2023-05-13T05:09:54.710Z,100844.16
2023-05-13T05:14:58.709Z,100848.63
2023-05-13T05:20:04.307Z,100849.00
2023-05-13T05:25:10.373Z,100841.84
2023-05-13T05:30:15.164Z,100840.13
2023-05-13T05:35:21.995Z,100843.66
2023-05-13T05:40:27.051Z,100840.44
2023-05-13T05:45:31.155Z,100792.63
2023-05-13T05:50:37.357Z,100819.03
2023-05-13T05:55:43.969Z,100836.13
2023-05-13T06:00:48.060Z,100836.88
2023-05-13T06:05:52.251Z,100827.91
2023-05-13T06:10:57.716Z,100831.22
2023-05-13T06:16:02.929Z,100832.31
2023-05-13T06:21:06.983Z,100828.09
2023-05-13T06:26:11.094Z,100844.06
2023-05-13T06:31:15.732Z,100838.75
2023-05-13T06:36:21.281Z,100839.84
2023-05-13T06:41:25.695Z,100834.25
2023-05-13T06:46:35.157Z,100833.22
2023-05-13T06:51:39.225Z,100816.59
2023-05-13T06:56:43.501Z,100829.13
2023-05-13T07:01:47.578Z,100831.16
2023-05-13T07:06:52.650Z,100826.22
2023-05-13T07:11:56.526Z,100832.41
2023-05-13T07:17:00.742Z,100841.06
2023-05-13T07:22:04.878Z,100825.06
2023-05-13T07:27:08.757Z,100816.34
2023-05-13T07:32:12.973Z,100813.53
2023-05-13T07:37:16.891Z,100809.16
2023-05-13T07:42:21.077Z,100815.25
2023-05-13T07:47:25.268Z,100810.72
2023-05-13T07:52:29.295Z,100811.69
2023-05-13T07:57:33.343Z,100811.50
2023-05-13T08:02:40.364Z,100809.31
2023-05-13T08:07:44.391Z,100738.66
2023-05-13T08:12:52.917Z,100784.88
2023-05-13T08:17:56.772Z,100791.69
2023-05-13T08:23:02.849Z,100783.06
2023-05-13T08:28:08.171Z,100787.44
2023-05-13T08:33:13.040Z,100769.94
2023-05-13T08:38:17.191Z,100757.56
2023-05-13T08:43:24.935Z,100771.00
2023-05-13T08:48:29.078Z,100765.53
2023-05-13T08:53:35.312Z,100775.88
2023-05-13T08:58:39.528Z,100767.66
2023-05-13T09:04:03.446Z,100755.59
2023-05-13T09:09:07.783Z,100748.00
2023-05-13T09:14:12.974Z,100740.38
2023-05-13T09:19:17.159Z,100750.25
2023-05-13T09:24:24.622Z,100698.59
2023-05-13T09:29:31.887Z,100734.72
2023-05-13T09:34:36.389Z,100751.19
2023-05-13T09:39:42.360Z,100747.81
2023-05-13T09:44:48.666Z,100751.06
2023-05-13T09:49:58.796Z,100745.50
2023-05-13T09:55:07.370Z,100763.63
2023-05-13T10:00:18.130Z,100752.53
2023-05-13T10:05:31.127Z,100743.13
2023-05-13T10:10:36.731Z,100744.06
2023-05-13T10:15:52.887Z,100740.41
2023-05-13T10:20:58.054Z,100749.75
2023-05-13T10:26:02.979Z,100745.34
2023-05-13T10:31:07.047Z,100716.22
2023-05-13T10:36:47.356Z,100735.19
2023-05-13T10:42:24.154Z,100722.72
2023-05-13T10:47:28.734Z,100714.88
2023-05-13T10:52:48.639Z,100714.03
2023-05-13T10:58:23.486Z,100716.44
2023-05-13T11:03:30.197Z,100715.91
2023-05-13T11:08:56.088Z,100715.38
2023-05-13T11:14:00.588Z,100726.34
2023-05-13T11:19:10.380Z,100731.34
2023-05-13T11:24:19.705Z,100738.75
2023-05-13T11:29:33.782Z,100728.00
2023-05-13T11:34:38.525Z,100734.91
2023-05-13T11:40:20.021Z,100736.06
2023-05-13T11:45:27.657Z,100730.78
2023-05-13T11:50:33.180Z,100734.19
2023-05-13T11:55:37.464Z,100631.38
2023-05-13T12:00:41.628Z,100671.09
2023-05-13T12:05:46.022Z,100726.63
2023-05-13T12:10:50.165Z,100714.47
2023-05-13T12:15:55.093Z,100727.41
2023-05-13T12:20:59.683Z,100701.28
2023-05-13T12:26:09.481Z,100708.50
2023-05-13T12:31:16.786Z,100711.63
2023-05-13T12:36:22.196Z,100707.34
2023-05-13T12:41:27.791Z,100693.69
2023-05-13T12:52:55.096Z,100678.50
2023-05-13T12:58:04.393Z,100685.34
2023-05-13T13:03:08.640Z,100669.75
2023-05-13T13:08:12.954Z,100668.66
2023-05-13T13:13:16.970Z,100677.19
2023-05-13T13:18:21.145Z,100663.91
2023-05-13T13:23:25.361Z,100662.75
2023-05-13T13:28:29.603Z,100666.66
2023-05-13T13:33:33.694Z,100668.81
2023-05-13T13:38:37.765Z,100670.22
2023-05-13T13:43:43.525Z,100661.94
2023-05-13T13:48:47.376Z,100662.44
2023-05-13T13:53:51.789Z,100637.53
2023-05-13T13:58:56.140Z,100654.66
2023-05-13T14:04:16.093Z,100591.75
2023-05-13T14:09:20.371Z,100640.38
2023-05-13T14:14:25.778Z,100629.69
2023-05-13T14:19:29.879Z,100654.16
2023-05-13T14:24:34.107Z,100646.06
2023-05-13T14:29:38.382Z,100653.59
2023-05-13T14:34:42.622Z,100654.09
2023-05-13T14:39:49.183Z,100649.25
2023-05-13T14:44:54.580Z,100649.41
2023-05-13T14:49:58.543Z,100674.28
2023-05-13T14:55:03.047Z,100661.91
2023-05-13T15:00:08.162Z,100654.13
2023-05-13T15:05:12.054Z,100650.81
2023-05-13T15:10:17.413Z,100579.53
2023-05-13T15:15:21.349Z,100620.81
2023-05-13T15:20:25.862Z,100642.69
2023-05-13T15:25:31.290Z,100644.88
2023-05-13T15:30:37.344Z,100643.44
2023-05-13T15:35:43.716Z,100649.59
2023-05-13T15:40:51.223Z,100645.69
2023-05-13T15:45:57.260Z,100629.63
2023-05-13T15:51:03.114Z,100643.66
2023-05-13T15:56:07.899Z,100617.13
2023-05-13T16:01:12.186Z,100641.31
2023-05-13T16:06:16.737Z,100625.25
2023-05-13T16:11:20.824Z,100629.47
2023-05-13T16:16:25.202Z,100636.06
2023-05-13T16:21:30.474Z,100626.13
2023-05-13T16:26:34.625Z,100633.56
2023-05-13T16:31:38.886Z,100619.19
2023-05-13T16:36:43.201Z,100632.41
2023-05-13T16:41:47.155Z,100624.94
2023-05-13T16:46:51.269Z,100616.81
2023-05-13T16:51:56.991Z,100624.69
2023-05-13T16:57:01.270Z,100595.41
2023-05-13T17:02:05.785Z,100582.69
2023-05-13T17:07:13.792Z,100606.63
2023-05-13T17:12:17.842Z,100592.88
2023-05-13T17:17:22.013Z,100576.91
2023-05-13T17:22:28.640Z,100592.41
2023-05-13T17:27:32.683Z,100594.50
2023-05-13T17:32:39.365Z,100586.28
2023-05-13T17:37:43.604Z,100580.75
2023-05-13T17:42:47.669Z,100576.94
2023-05-13T17:47:52.108Z,100567.09
2023-05-13T17:52:56.678Z,100564.81
2023-05-13T17:58:01.242Z,100583.97
2023-05-13T18:03:11.637Z,100568.00
2023-05-13T18:08:16.022Z,100563.84
2023-05-13T18:13:20.058Z,100562.56
2023-05-13T18:18:24.286Z,100570.50
2023-05-13T18:23:28.400Z,100537.16
2023-05-13T18:28:33.730Z,100560.69
2023-05-13T18:33:37.669Z,100578.81
2023-05-13T18:38:41.993Z,100569.66
2023-05-13T18:43:46.366Z,100554.59
2023-05-13T18:48:50.376Z,100553.19
2023-05-13T18:53:54.556Z,100550.22
2023-05-13T18:58:58.933Z,100556.91
2023-05-13T19:04:03.853Z,100546.84
2023-05-13T19:09:08.142Z,100550.97
2023-05-13T19:14:12.160Z,100510.00
2023-05-13T19:19:17.916Z,100553.19
2023-05-13T19:24:21.911Z,100554.31
2023-05-13T19:29:26.178Z,100548.63
2023-05-13T19:34:30.123Z,100552.13
2023-05-13T19:39:34.208Z,100533.47
2023-05-13T19:44:38.155Z,100548.66
2023-05-13T19:49:42.173Z,100532.72
2023-05-13T19:54:46.142Z,100537.34
2023-05-13T19:59:50.479Z,100531.19
2023-05-13T20:04:54.675Z,100540.66
2023-05-13T20:09:58.527Z,100530.69
2023-05-13T20:15:04.146Z,100531.03
2023-05-13T20:20:09.564Z,100501.34
2023-05-13T20:25:13.738Z,100511.41
2023-05-13T20:30:17.881Z,100495.38
2023-05-13T20:35:21.913Z,100502.34
2023-05-13T20:40:26.098Z,100424.81
2023-05-13T20:45:30.269Z,100482.53
2023-05-13T20:50:34.401Z,100485.34
2023-05-13T20:55:38.230Z,100483.75
2023-05-13T21:00:42.372Z,100484.06
2023-05-13T21:05:46.620Z,100475.75
2023-05-13T21:10:50.420Z,100446.47
2023-05-13T21:15:54.466Z,100460.78
2023-05-13T21:20:58.875Z,100460.13
2023-05-13T21:26:08.809Z,100446.31
2023-05-13T21:31:12.889Z,100448.97
2023-05-13T21:36:17.172Z,100432.00
2023-05-13T21:41:22.573Z,100412.38
2023-05-13T21:46:26.753Z,100395.63
2023-05-13T21:51:30.573Z,100408.84
2023-05-13T21:56:34.602Z,100419.13
2023-05-13T22:01:38.613Z,100404.50
2023-05-13T22:06:42.873Z,100407.88
2023-05-13T22:11:46.934Z,100394.03
2023-05-13T22:17:04.753Z,100390.66
2023-05-13T22:22:12.308Z,100388.09
2023-05-13T22:27:16.504Z,100386.97
2023-05-13T22:32:20.361Z,100385.63
2023-05-13T22:37:24.707Z,100388.78
2023-05-13T22:42:28.928Z,100383.91
2023-05-13T22:47:33.111Z,100381.28
2023-05-13T22:52:37.125Z,100382.81
2023-05-13T22:57:41.080Z,100382.41
2023-05-13T23:02:45.400Z,100369.75
2023-05-13T23:07:49.343Z,100372.97
2023-05-13T23:12:53.411Z,100290.75
2023-05-13T23:17:57.417Z,100374.03
2023-05-13T23:23:01.298Z,100342.41
2023-05-13T23:28:05.395Z,100351.66
2023-05-13T23:33:09.481Z,100351.34
2023-05-13T23:38:13.474Z,100356.13
2023-05-13T23:43:17.738Z,100349.63
2023-05-13T23:48:21.686Z,100347.19
2023-05-13T23:53:26.549Z,100348.41
2023-05-13T23:58:30.380Z,100358.03
